< < Back
Terminal Aerodrome Forecast


Current Version              Previous Versions:   1  2  3  4  5  6  7  8  9  

Terminal Aerodrome Forecast

360
FTUS42 KTAE 210500
TAFTLH
TAF
KTLH 210523Z 2106/2206 00000KT P6SM SKC
     FM211500 03006KT P6SM FEW250
     FM220000 00000KT P6SM SCT250=

Latest METAR

074
SAUS80 KWBC 211000 RRB
MTRTLH
METAR KTLH 210953Z 00000KT 9SM BCFG FEW003 09/08 A3011 RMK AO2 SLP195
FIRST AUGMENTED OBS T00940078 $


USA.gov is the U.S. government's official web portal to all federal, state and local government web resources and services.